createdAt,value
2023-02-23T00:03:23.470Z,7.10
2023-02-23T00:13:25.161Z,7.82
2023-02-23T00:23:27.867Z,7.35
2023-02-23T00:33:31.360Z,7.30
2023-02-23T00:43:37.155Z,8.18
2023-02-23T00:53:38.938Z,7.90
2023-02-23T01:03:41.801Z,8.27
2023-02-23T01:13:47.102Z,7.82
2023-02-23T01:23:50.071Z,8.10
2023-02-23T01:33:58.274Z,8.00
2023-02-23T01:44:09.094Z,7.45
2023-02-23T01:54:16.097Z,8.07
2023-02-23T02:04:19.670Z,7.97
2023-02-23T02:14:31.156Z,7.50
2023-02-23T02:25:12.659Z,7.95
2023-02-23T02:35:51.975Z,8.60
2023-02-23T02:46:13.430Z,8.18
2023-02-23T02:56:20.068Z,7.78
2023-02-23T03:07:01.694Z,7.78
2023-02-23T03:17:38.112Z,7.70
2023-02-23T03:28:12.512Z,7.60
2023-02-23T03:38:41.442Z,7.50
2023-02-23T03:49:04.370Z,7.97
2023-02-23T03:59:25.547Z,7.32
2023-02-23T04:09:45.710Z,7.15
2023-02-23T04:19:54.029Z,7.65
2023-02-23T04:29:55.511Z,7.80
2023-02-23T04:39:57.126Z,7.25
2023-02-23T04:49:58.693Z,7.30
2023-02-23T05:00:00.301Z,7.13
2023-02-23T05:10:02.351Z,7.43
2023-02-23T05:20:04.293Z,6.68
2023-02-23T05:30:08.002Z,7.25
2023-02-23T05:40:10.509Z,7.00
2023-02-23T05:50:12.171Z,7.28
2023-02-23T06:00:14.237Z,6.90
2023-02-23T06:10:15.995Z,7.00
2023-02-23T06:20:17.533Z,6.10
2023-02-23T06:30:19.044Z,5.82
2023-02-23T06:40:21.167Z,6.63
2023-02-23T06:50:22.722Z,5.63
2023-02-23T07:00:24.385Z,5.40
2023-02-23T07:10:25.914Z,5.95
2023-02-23T07:20:27.493Z,5.18
2023-02-23T07:30:29.059Z,5.15
2023-02-23T07:40:30.620Z,4.97
2023-02-23T07:50:32.084Z,4.60
2023-02-23T08:00:34.751Z,4.90
2023-02-23T08:10:36.412Z,4.50
2023-02-23T08:20:38.181Z,4.80
2023-02-23T08:30:40.882Z,4.32
2023-02-23T08:40:43.192Z,3.92
2023-02-23T08:50:44.967Z,3.78
2023-02-23T09:00:46.481Z,3.28
2023-02-23T09:10:47.940Z,3.47
2023-02-23T09:20:50.436Z,3.38
2023-02-23T09:30:51.937Z,3.42
2023-02-23T09:40:55.498Z,3.58
2023-02-23T09:50:58.109Z,3.45
2023-02-23T10:01:29.489Z,3.30
2023-02-23T10:11:51.555Z,3.55
2023-02-23T10:21:59.781Z,4.05
2023-02-23T10:32:27.038Z,4.07
2023-02-23T10:42:28.984Z,3.95
2023-02-23T10:52:43.086Z,3.60
2023-02-23T11:02:45.400Z,4.00
2023-02-23T11:12:49.717Z,3.72
2023-02-23T11:22:52.570Z,3.50
2023-02-23T11:33:02.468Z,3.20
2023-02-23T11:43:09.150Z,3.53
2023-02-23T11:53:16.366Z,3.70
2023-02-23T12:03:21.908Z,4.00
2023-02-23T12:13:41.030Z,3.85
2023-02-23T12:23:44.385Z,3.65
2023-02-23T12:33:47.415Z,4.20
2023-02-23T12:43:51.484Z,5.45
2023-02-23T12:53:53.020Z,5.23
2023-02-23T13:04:13.140Z,4.43
2023-02-23T13:14:32.015Z,4.68
2023-02-23T13:24:37.025Z,4.28
2023-02-23T13:35:02.408Z,4.22
2023-02-23T13:55:28.231Z,5.13
2023-02-23T14:05:31.790Z,5.13
2023-02-23T14:15:37.715Z,5.57
2023-02-23T14:25:39.177Z,5.28
2023-02-23T14:35:44.115Z,5.47
2023-02-23T14:45:46.279Z,5.18
2023-02-23T14:55:48.623Z,5.43
2023-02-23T15:05:55.111Z,4.50
2023-02-23T15:15:57.991Z,3.55
2023-02-23T15:26:00.038Z,3.63
2023-02-23T15:36:04.501Z,3.35
2023-02-23T15:46:06.275Z,2.70
2023-02-23T15:56:16.052Z,2.92
2023-02-23T16:06:24.213Z,3.22
2023-02-23T16:16:25.853Z,3.05
2023-02-23T16:26:42.762Z,2.67
2023-02-23T16:36:49.580Z,2.55
2023-02-23T16:46:53.812Z,2.60
2023-02-23T16:56:56.023Z,3.47
2023-02-23T17:06:58.030Z,2.55
2023-02-23T17:17:02.803Z,2.85
2023-02-23T17:27:04.468Z,2.58
2023-02-23T17:37:07.840Z,2.85
2023-02-23T17:47:09.918Z,2.80
2023-02-23T17:57:11.437Z,2.53
2023-02-23T18:07:13.013Z,2.42
2023-02-23T18:17:15.615Z,3.15
2023-02-23T18:27:17.075Z,2.40
2023-02-23T18:37:25.039Z,2.47
2023-02-23T18:47:26.728Z,2.00
2023-02-23T18:57:28.248Z,1.80
2023-02-23T19:07:33.099Z,2.00
2023-02-23T19:27:36.564Z,1.67
2023-02-23T19:37:40.006Z,2.10
2023-02-23T19:47:42.266Z,1.95
2023-02-23T19:57:43.809Z,2.40
2023-02-23T20:07:45.281Z,1.60
2023-02-23T20:17:48.288Z,1.50
2023-02-23T20:27:53.221Z,1.88
2023-02-23T20:47:56.420Z,1.48
2023-02-23T20:57:58.561Z,1.75
2023-02-23T21:08:07.416Z,1.40
2023-02-23T21:18:09.143Z,1.30
2023-02-23T21:28:10.628Z,1.48
2023-02-23T21:38:12.145Z,1.42
2023-02-23T21:48:15.325Z,1.27
2023-02-23T21:58:16.796Z,1.77
2023-02-23T22:08:18.297Z,1.08
2023-02-23T22:18:19.793Z,1.70
2023-02-23T22:28:21.385Z,1.35
2023-02-23T22:38:23.251Z,1.10
2023-02-23T22:48:24.853Z,1.42
2023-02-23T22:58:26.709Z,1.13
2023-02-23T23:08:37.069Z,1.23
2023-02-23T23:18:42.301Z,1.20
2023-02-23T23:28:49.133Z,1.17
2023-02-23T23:38:51.604Z,1.70
2023-02-23T23:49:05.978Z,1.13
2023-02-23T23:59:14.562Z,1.27
